TimeMST,TemperatureF,Dew PointF,Humidity,Sea Level PressureIn,VisibilityMPH,Wind Direction,Wind SpeedMPH,Gust SpeedMPH,PrecipitationIn,Events,Conditions,WindDirDegrees,DateUTC
12:51 AM,23.0,18.0,81,30.12,10.0,NW,3.5,-,N/A,,Clear,320,2012-03-10 07:51:00
1:51 AM,23.0,17.1,78,30.07,10.0,NNE,3.5,-,N/A,,Clear,30,2012-03-10 08:51:00
2:51 AM,21.0,16.0,81,30.05,10.0,Calm,Calm,-,N/A,,Clear,0,2012-03-10 09:51:00
3:51 AM,23.0,17.1,78,30.03,10.0,NNW,5.8,-,N/A,,Clear,330,2012-03-10 10:51:00
4:51 AM,21.0,16.0,81,30.03,10.0,Calm,Calm,-,N/A,,Clear,0,2012-03-10 11:51:00
5:51 AM,19.0,15.1,85,30.03,10.0,Calm,Calm,-,N/A,,Clear,0,2012-03-10 12:51:00
6:51 AM,19.0,15.1,85,30.04,10.0,Variable,3.5,-,N/A,,Clear,0,2012-03-10 13:51:00
7:51 AM,23.0,17.1,78,30.04,10.0,Calm,Calm,-,N/A,,Overcast,0,2012-03-10 14:51:00
8:51 AM,27.0,19.9,75,30.03,10.0,Calm,Calm,-,N/A,,Mostly Cloudy,0,2012-03-10 15:51:00
9:51 AM,37.9,19.9,48,30.00,10.0,Calm,Calm,-,N/A,,Mostly Cloudy,0,2012-03-10 16:51:00
11:51 AM,42.1,21.0,43,29.96,10.0,South,8.1,-,N/A,,Scattered Clouds,170,2012-03-10 18:51:00
12:51 PM,45.0,19.0,36,29.94,10.0,South,11.5,-,N/A,,Scattered Clouds,170,2012-03-10 19:51:00
1:51 PM,45.0,18.0,34,29.92,10.0,South,11.5,-,N/A,,Scattered Clouds,190,2012-03-10 20:51:00
2:51 PM,45.0,17.1,33,29.90,10.0,South,12.7,-,N/A,,Partly Cloudy,180,2012-03-10 21:51:00
3:51 PM,46.9,18.0,32,29.86,10.0,SSE,3.5,-,N/A,,Scattered Clouds,150,2012-03-10 22:51:00
4:51 PM,43.0,23.0,45,29.86,10.0,South,4.6,-,N/A,,Clear,180,2012-03-10 23:51:00
5:51 PM,46.0,23.0,40,29.84,10.0,Calm,Calm,-,N/A,,Clear,0,2012-03-11 00:51:00
6:51 PM,41.0,24.1,51,29.85,10.0,Calm,Calm,-,N/A,,Clear,0,2012-03-11 01:51:00
7:51 PM,36.0,23.0,59,29.85,10.0,Calm,Calm,-,N/A,,Clear,0,2012-03-11 02:51:00
8:51 PM,34.0,25.0,70,29.83,9.0,Calm,Calm,-,N/A,,Overcast,0,2012-03-11 03:51:00
9:51 PM,32.0,23.0,69,29.79,10.0,Calm,Calm,-,N/A,,Overcast,0,2012-03-11 04:51:00
10:51 PM,30.9,23.0,72,29.77,10.0,Calm,Calm,-,N/A,,Scattered Clouds,0,2012-03-11 05:51:00
11:51 PM,30.0,23.0,75,29.74,10.0,Calm,Calm,-,N/A,,Overcast,0,2012-03-11 06:51:00